createdAt,value
2017-11-27T00:00:26.402Z,82.98
2017-11-27T00:01:36.206Z,82.98
2017-11-27T00:02:46.013Z,82.89
2017-11-27T00:03:55.821Z,82.89
2017-11-27T00:05:05.954Z,82.98
2017-11-27T00:06:15.764Z,83.08
2017-11-27T00:07:25.576Z,83.17
2017-11-27T00:08:35.133Z,82.98
2017-11-27T00:09:45.196Z,83.08
2017-11-27T00:10:55.019Z,82.98
2017-11-27T00:12:05.093Z,83.17
2017-11-27T00:13:14.912Z,83.17
2017-11-27T00:14:24.719Z,82.98
2017-11-27T00:15:34.530Z,83.17
2017-11-27T00:16:44.689Z,83.17
2017-11-27T00:17:54.769Z,83.17
2017-11-27T00:19:04.833Z,83.17
2017-11-27T00:20:14.647Z,82.89
2017-11-27T00:21:24.713Z,82.98
2017-11-27T00:22:34.533Z,83.17
2017-11-27T00:23:44.324Z,82.98
2017-11-27T00:24:53.875Z,82.98
2017-11-27T00:26:03.963Z,83.08
2017-11-27T00:27:13.241Z,82.98
2017-11-27T00:28:22.782Z,83.17
2017-11-27T00:29:32.873Z,83.08
2017-11-27T00:30:42.706Z,82.7
2017-11-27T00:31:52.796Z,83.27
2017-11-27T00:33:02.657Z,82.51
2017-11-27T00:34:12.725Z,82.6
2017-11-27T00:35:22.514Z,82.6
2017-11-27T00:36:32.614Z,82.89
2017-11-27T00:37:42.436Z,82.79
2017-11-27T00:38:52.560Z,82.7
2017-11-27T00:40:02.641Z,82.89
2017-11-27T00:41:12.453Z,82.51
2017-11-27T00:42:22.242Z,82.6
2017-11-27T00:43:32.338Z,82.6
2017-11-27T00:44:42.437Z,83.08
2017-11-27T00:45:52.295Z,83.17
2017-11-27T00:47:02.384Z,83.17
2017-11-27T00:48:12.446Z,83.08
2017-11-27T00:49:22.530Z,83.17
2017-11-27T00:50:32.331Z,83.17
2017-11-27T00:51:42.398Z,82.89
2017-11-27T00:52:52.482Z,83.17
2017-11-27T00:54:02.559Z,83.08
2017-11-27T00:55:12.397Z,83.08
2017-11-27T00:56:22.471Z,83.17
2017-11-27T00:57:32.070Z,82.98
2017-11-27T00:58:41.875Z,82.89
2017-11-27T00:59:51.963Z,82.89
2017-11-27T01:01:01.766Z,82.98
2017-11-27T01:02:11.329Z,83.08
2017-11-27T01:03:21.687Z,82.89
2017-11-27T01:04:30.963Z,82.89
2017-11-27T01:05:40.777Z,82.89
2017-11-27T01:06:50.590Z,82.89
2017-11-27T01:08:00.401Z,82.7
2017-11-27T01:09:10.548Z,83.08
2017-11-27T01:10:20.642Z,82.98
2017-11-27T01:11:30.468Z,82.98
2017-11-27T01:12:40.538Z,82.79
2017-11-27T01:13:50.509Z,83.17
2017-11-27T01:15:00.637Z,82.89
2017-11-27T01:16:10.710Z,82.7
2017-11-27T01:17:20.515Z,82.7
2017-11-27T01:18:30.338Z,83.17
2017-11-27T01:19:40.500Z,82.89
2017-11-27T01:20:50.581Z,82.79
2017-11-27T01:22:00.423Z,82.79
2017-11-27T01:23:10.239Z,83.08
2017-11-27T01:24:20.331Z,82.6
2017-11-27T01:25:29.875Z,83.17
2017-11-27T01:26:39.984Z,82.6
2017-11-27T01:27:49.796Z,82.6
2017-11-27T01:28:59.608Z,82.51
2017-11-27T01:30:09.703Z,82.7
2017-11-27T01:31:19.771Z,82.65
2017-11-27T01:32:29.319Z,83.03
2017-11-27T01:33:39.412Z,82.93
2017-11-27T01:34:49.560Z,82.74
2017-11-27T01:35:59.646Z,82.74
2017-11-27T01:37:09.760Z,83.03
2017-11-27T01:38:19.568Z,82.74
2017-11-27T01:39:29.384Z,82.74
2017-11-27T01:40:39.216Z,83.22
2017-11-27T01:41:49.023Z,83.22
2017-11-27T01:42:58.843Z,83.22
2017-11-27T01:44:08.643Z,83.22
2017-11-27T01:45:18.448Z,82.93
2017-11-27T01:46:28.526Z,82.84
2017-11-27T01:47:38.602Z,83.12
2017-11-27T01:48:48.701Z,83.12
2017-11-27T01:49:58.795Z,82.93
2017-11-27T01:51:08.873Z,82.93
2017-11-27T01:52:18.745Z,83.4
2017-11-27T01:53:28.545Z,83.5
2017-11-27T01:54:38.617Z,83.22
2017-11-27T01:55:48.705Z,83.03
2017-11-27T01:56:58.780Z,83.12
2017-11-27T01:58:08.971Z,82.74
2017-11-27T01:59:18.781Z,83.12
2017-11-27T02:00:28.848Z,83.22
2017-11-27T02:01:38.647Z,83.22
2017-11-27T02:02:48.453Z,83.22
2017-11-27T02:03:58.507Z,82.84
2017-11-27T02:05:07.826Z,82.84
2017-11-27T02:06:17.890Z,83.31
2017-11-27T02:07:27.949Z,82.84
2017-11-27T02:08:38.031Z,83.31
2017-11-27T02:09:47.569Z,83.4
2017-11-27T02:10:57.372Z,83.12
2017-11-27T02:12:07.179Z,82.84
2017-11-27T02:13:17.251Z,83.03
2017-11-27T02:14:27.317Z,83.03
2017-11-27T02:15:37.177Z,82.79
2017-11-27T02:16:47.253Z,82.84
2017-11-27T02:17:57.342Z,82.93
2017-11-27T02:19:07.421Z,82.93
2017-11-27T02:20:17.495Z,83.08
2017-11-27T02:21:27.314Z,82.89
2017-11-27T02:22:37.430Z,82.89
2017-11-27T02:23:47.495Z,82.89
2017-11-27T02:24:57.282Z,82.7
2017-11-27T02:26:07.096Z,82.98
2017-11-27T02:27:17.176Z,83.08
2017-11-27T02:28:27.238Z,83.17
2017-11-27T02:29:37.309Z,83.17
2017-11-27T02:30:47.133Z,82.89
2017-11-27T02:31:56.689Z,82.89
2017-11-27T02:33:06.485Z,83.08
2017-11-27T02:34:15.772Z,82.98
2017-11-27T02:35:25.353Z,82.89
2017-11-27T02:36:35.438Z,83.17
2017-11-27T02:37:45.255Z,83.08
2017-11-27T02:38:55.342Z,83.08
2017-11-27T02:40:05.160Z,82.98
2017-11-27T02:41:15.246Z,82.98
2017-11-27T02:42:25.348Z,83.27
2017-11-27T02:43:35.155Z,83.17
2017-11-27T02:44:45.312Z,83.08
2017-11-27T02:45:55.393Z,83.17
2017-11-27T02:47:05.489Z,83.46
2017-11-27T02:48:15.290Z,82.79
2017-11-27T02:49:25.365Z,83.08
2017-11-27T02:50:35.471Z,82.89
2017-11-27T02:51:45.551Z,83.17
2017-11-27T02:52:55.380Z,82.98
2017-11-27T02:54:05.198Z,82.89
2017-11-27T02:55:15.020Z,83.08
2017-11-27T02:56:25.147Z,82.7
2017-11-27T02:57:35.227Z,82.89
2017-11-27T02:58:45.353Z,82.74
2017-11-27T02:59:54.640Z,82.55
2017-11-27T03:01:04.443Z,82.84
2017-11-27T03:02:14.252Z,82.74
2017-11-27T03:33:51.647Z,78.64
2017-11-27T03:35:01.704Z,79.39
2017-11-27T03:36:11.799Z,80.91
2017-11-27T03:37:21.596Z,81.57
2017-11-27T03:38:31.683Z,81.57
2017-11-27T03:39:41.604Z,82.62
2017-11-27T03:40:51.128Z,83.09
2017-11-27T03:42:01.230Z,83.75
2017-11-27T03:43:10.770Z,84.17
2017-11-27T03:44:20.845Z,84.08
2017-11-27T03:45:30.928Z,84.27
2017-11-27T03:46:41.003Z,84.36
2017-11-27T03:47:50.546Z,84.17
2017-11-27T03:49:00.606Z,84.22
2017-11-27T03:50:10.710Z,84.22
2017-11-27T03:51:20.517Z,84.03
2017-11-27T03:52:30.332Z,84.03
2017-11-27T03:53:39.887Z,84.12
2017-11-27T03:54:49.684Z,84.12
2017-11-27T03:55:59.758Z,84.12
2017-11-27T03:57:09.630Z,84.07
2017-11-27T03:58:19.170Z,84.03
2017-11-27T03:59:29.265Z,84.07
2017-11-27T04:00:38.541Z,84.17
2017-11-27T04:01:48.625Z,83.69
2017-11-27T04:02:58.694Z,84.07
2017-11-27T04:04:08.507Z,83.97
2017-11-27T04:05:18.054Z,83.69
2017-11-27T04:06:27.889Z,83.78
2017-11-27T04:07:37.698Z,83.59
2017-11-27T04:08:47.507Z,83.69
2017-11-27T04:09:57.608Z,83.59
2017-11-27T04:11:07.706Z,83.5
2017-11-27T04:12:17.781Z,83.4
2017-11-27T04:13:28.777Z,83.59
2017-11-27T04:14:38.586Z,83.78
2017-11-27T04:15:48.401Z,83.69
2017-11-27T04:16:58.482Z,83.4
2017-11-27T04:18:08.326Z,83.97
2017-11-27T04:19:18.143Z,83.31
2017-11-27T04:20:28.262Z,83.03
2017-11-27T04:21:38.764Z,82.84
2017-11-27T04:22:48.839Z,83.03
2017-11-27T04:23:58.643Z,82.84
2017-11-27T04:25:08.733Z,82.93
2017-11-27T04:26:18.616Z,83.31
2017-11-27T04:27:28.715Z,83.12
2017-11-27T04:28:38.518Z,83.45
2017-11-27T04:29:48.345Z,83.22
2017-11-27T04:30:58.406Z,83.31
2017-11-27T04:32:08.005Z,83.26
2017-11-27T04:33:17.551Z,83.07
2017-11-27T04:34:27.368Z,83.07
2017-11-27T04:35:37.464Z,83.36
2017-11-27T04:36:47.268Z,83.16
2017-11-27T04:37:57.396Z,83.16
2017-11-27T04:39:07.498Z,82.97
2017-11-27T04:40:17.581Z,83.26
2017-11-27T04:41:27.393Z,83.26
2017-11-27T04:42:37.205Z,83.26
2017-11-27T04:43:47.289Z,82.97
2017-11-27T04:44:57.105Z,82.97
2017-11-27T04:46:07.189Z,83.26
2017-11-27T04:47:17.266Z,82.97
2017-11-27T04:48:27.076Z,82.88
2017-11-27T04:49:37.203Z,82.88
2017-11-27T04:50:47.280Z,83.26
2017-11-27T04:51:57.359Z,82.97
2017-11-27T04:53:07.468Z,82.97
2017-11-27T04:54:17.293Z,82.97
2017-11-27T04:55:27.103Z,82.88
2017-11-27T04:56:37.175Z,83.26
2017-11-27T04:57:46.992Z,83.07
2017-11-27T04:58:56.805Z,83.26
2017-11-27T05:00:06.905Z,83.07
2017-11-27T05:01:16.997Z,83.07
2017-11-27T05:02:26.816Z,82.97
2017-11-27T05:03:36.620Z,83.16
2017-11-27T05:04:46.689Z,82.97
2017-11-27T05:05:56.269Z,82.88
2017-11-27T05:07:06.126Z,82.69
2017-11-27T05:08:16.209Z,83.26
2017-11-27T05:09:26.288Z,82.88
2017-11-27T05:10:36.363Z,82.88
2017-11-27T05:11:46.180Z,82.88
2017-11-27T05:12:56.238Z,83.07
2017-11-27T05:14:05.793Z,83.07
2017-11-27T05:15:15.600Z,82.88
2017-11-27T05:16:25.934Z,82.88
2017-11-27T05:17:36.002Z,82.88
2017-11-27T05:18:45.815Z,82.78
2017-11-27T05:19:55.891Z,82.97
2017-11-27T05:21:05.976Z,82.92
2017-11-27T05:22:15.784Z,82.92
2017-11-27T05:23:25.596Z,82.97
2017-11-27T05:24:35.395Z,83.11
2017-11-27T05:25:45.470Z,83.26
2017-11-27T05:26:55.538Z,83.26
2017-11-27T05:28:05.349Z,83.49
2017-11-27T05:29:15.432Z,83.26
2017-11-27T05:30:25.496Z,83.36
2017-11-27T05:31:35.554Z,83.49
2017-11-27T05:32:45.630Z,83.3
2017-11-27T05:33:55.456Z,83.49
2017-11-27T05:35:05.260Z,83.49
2017-11-27T05:36:15.350Z,83.45
2017-11-27T05:37:24.909Z,83.49
2017-11-27T05:38:34.736Z,83.26
2017-11-27T05:39:44.544Z,83.49
2017-11-27T05:40:54.642Z,83.3
2017-11-27T05:42:04.506Z,83.45
2017-11-27T05:43:14.595Z,83.11
2017-11-27T05:44:24.402Z,83.87
2017-11-27T05:45:34.225Z,83.3
2017-11-27T05:46:44.044Z,83.3
2017-11-27T05:47:53.893Z,84.06
2017-11-27T05:49:03.993Z,84.11
2017-11-27T05:50:13.806Z,83.3
2017-11-27T05:51:23.883Z,83.39
2017-11-27T05:52:33.956Z,83.39
2017-11-27T05:53:44.077Z,83.39
2017-11-27T05:54:54.173Z,83.3
2017-11-27T05:56:03.723Z,83.36
2017-11-27T05:57:13.267Z,83.26
2017-11-27T05:58:23.085Z,83.39
2017-11-27T05:59:32.894Z,83.45
2017-11-27T06:00:42.971Z,83.54
2017-11-27T06:01:52.782Z,83.64
2017-11-27T06:03:02.872Z,83.36
2017-11-27T06:04:12.666Z,83.64
2017-11-27T06:05:22.482Z,83.64
2017-11-27T06:06:32.590Z,83.64
2017-11-27T06:07:42.659Z,83.26
2017-11-27T06:08:52.470Z,83.36
2017-11-27T06:10:02.572Z,83.64
2017-11-27T06:11:12.399Z,83.83
2017-11-27T06:12:22.476Z,83.64
2017-11-27T06:13:32.562Z,83.54
2017-11-27T06:14:42.374Z,83.16
2017-11-27T06:15:52.453Z,83.73
2017-11-27T06:17:02.637Z,83.36
2017-11-27T06:18:12.708Z,83.83
2017-11-27T06:19:22.814Z,83.64
2017-11-27T06:20:32.897Z,83.83
2017-11-27T06:21:42.453Z,83.64
2017-11-27T06:22:52.039Z,83.64
2017-11-27T06:24:01.857Z,83.73
2017-11-27T06:25:11.924Z,83.73
2017-11-27T06:26:21.984Z,83.64
2017-11-27T06:27:32.058Z,83.92
2017-11-27T06:28:42.181Z,84.01
2017-11-27T06:29:51.987Z,83.83
2017-11-27T06:31:01.548Z,83.83
2017-11-27T06:32:11.640Z,83.83
2017-11-27T06:33:21.444Z,83.45
2017-11-27T06:34:31.581Z,83.54
2017-11-27T06:35:41.386Z,83.36
2017-11-27T06:36:51.469Z,84.01
2017-11-27T06:38:01.282Z,84.01
2017-11-27T06:39:11.103Z,84.01
2017-11-27T06:40:21.219Z,84.01
2017-11-27T06:41:31.026Z,83.26
2017-11-27T06:42:40.586Z,83.36
2017-11-27T06:43:50.659Z,83.45
2017-11-27T06:45:00.462Z,83.36
2017-11-27T06:46:10.328Z,83.26
2017-11-27T06:47:20.404Z,83.45
2017-11-27T06:48:30.211Z,83.26
2017-11-27T06:49:40.320Z,83.36
2017-11-27T06:50:50.141Z,83.26
2017-11-27T06:52:00.278Z,83.26
2017-11-27T06:53:10.349Z,83.07
2017-11-27T06:54:20.436Z,83.2
2017-11-27T06:55:30.538Z,83.39
2017-11-27T06:56:40.361Z,83.11
2017-11-27T06:57:50.148Z,83.3
2017-11-27T06:58:59.964Z,83.3
2017-11-27T07:00:10.051Z,82.73
2017-11-27T07:01:19.922Z,82.82
2017-11-27T07:02:29.995Z,82.82
2017-11-27T07:03:40.074Z,83.01
2017-11-27T07:04:50.138Z,82.73
2017-11-27T07:06:00.219Z,82.92
2017-11-27T07:07:10.039Z,82.82
2017-11-27T07:08:20.141Z,83.01
2017-11-27T07:09:29.987Z,82.35
2017-11-27T07:10:40.053Z,82.35
2017-11-27T07:11:50.137Z,82.64
2017-11-27T07:12:59.961Z,82.82
2017-11-27T07:14:09.507Z,82.68
2017-11-27T07:15:19.321Z,82.29
2017-11-27T07:16:29.383Z,81.92
2017-11-27T07:17:39.458Z,82.01
2017-11-27T07:18:49.269Z,81.92
2017-11-27T07:19:59.352Z,82.29
2017-11-27T07:21:09.426Z,82.1
2017-11-27T07:22:19.517Z,82.05
2017-11-27T07:23:29.602Z,82.24
2017-11-27T07:24:39.733Z,82.05
2017-11-27T07:25:49.796Z,82.15
2017-11-27T07:26:59.887Z,82.15
2017-11-27T07:28:09.975Z,82.05
2017-11-27T07:29:19.795Z,82.19
2017-11-27T07:30:29.607Z,81.9
2017-11-27T07:31:39.417Z,82
2017-11-27T07:32:49.576Z,82.19
2017-11-27T07:33:59.396Z,82.38
2017-11-27T07:35:09.468Z,82.28
2017-11-27T07:36:19.281Z,82.38
2017-11-27T07:37:29.443Z,82.19
2017-11-27T07:38:39.530Z,82.38
2017-11-27T07:39:49.637Z,83.19
2017-11-27T07:40:59.747Z,83
2017-11-27T07:42:09.056Z,83
2017-11-27T07:43:19.114Z,83
2017-11-27T07:44:28.995Z,82.71
2017-11-27T07:45:38.810Z,83.39
2017-11-27T07:46:48.903Z,83.39
2017-11-27T07:47:58.718Z,83.39
2017-11-27T07:49:08.821Z,83.19
2017-11-27T07:50:18.948Z,83.39
2017-11-27T07:51:28.508Z,83.29
2017-11-27T07:52:38.349Z,83.42
2017-11-27T07:53:47.903Z,82.95
2017-11-27T07:54:57.978Z,82.76
2017-11-27T07:56:07.801Z,83.14
2017-11-27T07:57:17.907Z,83.23
2017-11-27T07:58:27.990Z,82.57
2017-11-27T07:59:37.836Z,82.48
2017-11-27T08:00:47.380Z,82.76
2017-11-27T08:01:57.521Z,82.67
2017-11-27T08:03:07.626Z,82.67
2017-11-27T08:04:17.453Z,82.86
2017-11-27T08:05:27.685Z,82.57
2017-11-27T08:06:37.514Z,82.28
2017-11-27T08:07:47.583Z,82.48
2017-11-27T08:08:57.414Z,82.28
2017-11-27T08:10:07.522Z,82.19
2017-11-27T08:11:17.617Z,81.9
2017-11-27T08:12:27.431Z,82.19
2017-11-27T08:13:37.562Z,82.09
2017-11-27T08:14:47.652Z,82.23
2017-11-27T08:15:57.467Z,82.14
2017-11-27T08:17:07.279Z,82.23
2017-11-27T08:18:17.091Z,82.14
2017-11-27T08:19:26.869Z,82.04
2017-11-27T08:20:36.677Z,82.32
2017-11-27T08:21:46.753Z,82.23
2017-11-27T08:22:56.832Z,82.04
2017-11-27T08:24:06.908Z,82.42
2017-11-27T08:25:17.025Z,82.32
2017-11-27T08:26:26.571Z,82.32
2017-11-27T08:27:36.392Z,82.42
2017-11-27T08:28:46.239Z,82.04
2017-11-27T08:29:56.316Z,81.95
2017-11-27T08:31:06.165Z,82.51
2017-11-27T08:32:16.260Z,82.32
2017-11-27T08:33:26.371Z,82.32
2017-11-27T08:34:36.466Z,82.51
2017-11-27T08:35:46.568Z,82.42
2017-11-27T08:36:56.367Z,82.42
2017-11-27T08:38:06.190Z,81.95
2017-11-27T08:39:15.521Z,82.14
2017-11-27T08:40:25.636Z,82.14
2017-11-27T08:41:35.724Z,82.18
2017-11-27T08:42:45.542Z,82.56
2017-11-27T08:43:55.625Z,81.89
2017-11-27T08:45:05.496Z,82.18
2017-11-27T08:46:15.630Z,82.18
2017-11-27T08:47:25.722Z,82.27
2017-11-27T08:48:35.538Z,82.27
2017-11-27T08:49:45.081Z,82.37
2017-11-27T08:50:55.158Z,82.56
2017-11-27T08:52:05.215Z,82.27
2017-11-27T08:53:15.024Z,81.98
2017-11-27T08:54:25.846Z,81.93
2017-11-27T08:55:35.669Z,82.12
2017-11-27T08:56:45.781Z,82.31
2017-11-27T08:57:55.846Z,82.21
2017-11-27T08:59:05.677Z,82.12
2017-11-27T09:00:15.772Z,82.31
2017-11-27T09:01:25.860Z,82.21
2017-11-27T09:02:35.740Z,81.65
2017-11-27T09:03:45.560Z,81.84
2017-11-27T09:04:55.374Z,81.74
2017-11-27T09:06:05.191Z,81.84
2017-11-27T09:07:15.008Z,82.03
2017-11-27T09:08:24.609Z,81.93
2017-11-27T09:09:34.676Z,81.84
2017-11-27T09:10:44.770Z,82.21
2017-11-27T09:11:54.579Z,82.03
2017-11-27T09:13:04.653Z,82.03
2017-11-27T09:14:14.749Z,82.31
2017-11-27T09:15:24.834Z,82.12
2017-11-27T09:16:34.922Z,82.21
2017-11-27T09:17:44.728Z,82.41
2017-11-27T09:18:54.535Z,82.5
2017-11-27T09:20:04.606Z,82.21
2017-11-27T09:21:14.429Z,82.41
2017-11-27T09:22:24.516Z,82.6
2017-11-27T09:23:34.327Z,82.69
2017-11-27T09:24:44.423Z,82.6
2017-11-27T09:25:54.500Z,82.41
2017-11-27T09:27:04.561Z,82.69
2017-11-27T09:28:14.651Z,82.69
2017-11-27T09:29:24.195Z,82.5
2017-11-27T09:30:34.016Z,82.5
2017-11-27T09:31:44.154Z,82.5
2017-11-27T09:32:53.713Z,82.5
2017-11-27T09:34:03.523Z,82.5
2017-11-27T09:35:13.636Z,82.31
2017-11-27T09:36:23.730Z,82.41
2017-11-27T09:37:33.812Z,82.21
2017-11-27T09:38:43.909Z,82.31
2017-11-27T09:39:54.641Z,81.98
2017-11-27T09:41:04.729Z,82.46
2017-11-27T09:42:14.829Z,82.5
2017-11-27T09:43:24.692Z,82.08
2017-11-27T09:44:34.767Z,82.27
2017-11-27T09:45:44.845Z,82.18
2017-11-27T09:46:54.407Z,82.56
2017-11-27T09:48:04.246Z,82.56
2017-11-27T09:49:14.370Z,82.08
2017-11-27T09:50:23.647Z,82.08
2017-11-27T09:51:33.472Z,82.18
2017-11-27T09:52:43.307Z,82.18
2017-11-27T09:53:52.912Z,82.18
2017-11-27T09:55:03.187Z,82.18
2017-11-27T09:56:13.004Z,82.27
2017-11-27T09:57:23.117Z,82.46
2017-11-27T09:58:32.658Z,82.37
2017-11-27T09:59:42.469Z,82.41
2017-11-27T10:00:52.568Z,82.18
2017-11-27T10:02:02.124Z,82.18
2017-11-27T10:03:11.945Z,82.56
2017-11-27T10:04:22.018Z,82.56
2017-11-27T10:05:31.846Z,82.46
2017-11-27T10:06:41.717Z,83.32
2017-11-27T10:07:51.813Z,83.18
2017-11-27T10:09:01.612Z,82.9
2017-11-27T10:10:11.716Z,83.18
2017-11-27T10:11:21.787Z,82.04
2017-11-27T10:12:31.624Z,82.08
2017-11-27T10:13:41.701Z,81.51
2017-11-27T10:14:51.788Z,82.21
2017-11-27T10:16:01.336Z,81.93
2017-11-27T10:17:11.427Z,81.07
2017-11-27T10:18:21.504Z,81.46
2017-11-27T10:19:31.596Z,81.36
2017-11-27T10:20:41.405Z,81.49
2017-11-27T10:21:51.220Z,81.68
2017-11-27T10:23:01.042Z,81.3
2017-11-27T10:24:10.857Z,81.49
2017-11-27T10:25:20.715Z,81.68
2017-11-27T10:26:30.805Z,81.59
2017-11-27T10:27:40.994Z,81.21
2017-11-27T10:28:51.090Z,81.4
2017-11-27T10:30:01.237Z,81.88
2017-11-27T10:31:11.050Z,81.3
2017-11-27T10:32:20.876Z,81.88
2017-11-27T10:33:30.971Z,81.88
2017-11-27T10:34:41.053Z,81.68
2017-11-27T10:35:50.884Z,82.17
2017-11-27T10:37:00.960Z,81.97
2017-11-27T10:38:10.828Z,81.92
2017-11-27T10:39:20.929Z,82.07
2017-11-27T10:40:30.761Z,82.11
2017-11-27T10:41:40.850Z,82.11
2017-11-27T10:42:50.669Z,81.25
2017-11-27T10:44:00.762Z,81.25
2017-11-27T10:45:10.585Z,81.25
2017-11-27T10:46:20.759Z,81.35
2017-11-27T10:47:30.837Z,81.35
2017-11-27T10:48:40.639Z,81.44
2017-11-27T10:49:50.732Z,81.25
2017-11-27T10:51:00.824Z,81.92
2017-11-27T10:52:10.909Z,81.63
2017-11-27T10:53:20.996Z,81.29
2017-11-27T10:54:30.811Z,81.29
2017-11-27T10:55:40.639Z,81.2
2017-11-27T10:56:50.702Z,81.2
2017-11-27T10:58:00.797Z,81.38
2017-11-27T10:59:10.883Z,81.29
2017-11-27T11:00:20.437Z,81.48
2017-11-27T11:01:30.496Z,81.67
2017-11-27T11:02:40.047Z,81.38
2017-11-27T11:03:49.857Z,81.48
2017-11-27T11:04:59.937Z,81.52
2017-11-27T11:06:09.484Z,81.43
2017-11-27T11:07:19.299Z,81.04
2017-11-27T11:08:29.136Z,81.04
2017-11-27T11:09:38.961Z,80.66
2017-11-27T11:10:49.102Z,80.41
2017-11-27T11:11:58.641Z,80.61
2017-11-27T11:13:08.484Z,79.85
2017-11-27T11:14:18.303Z,79.98
2017-11-27T11:15:27.855Z,79.88
2017-11-27T11:16:37.668Z,80.27
2017-11-27T11:17:48.512Z,80.27
2017-11-27T11:18:58.327Z,80.36
2017-11-27T11:20:08.413Z,80.55
2017-11-27T11:21:18.544Z,81.37
2017-11-27T11:22:28.667Z,81.37
2017-11-27T11:23:38.812Z,81.76
2017-11-27T11:24:48.090Z,81.95
2017-11-27T11:25:57.915Z,82.14
2017-11-27T11:27:07.744Z,82.48
2017-11-27T11:28:17.664Z,81.9
2017-11-27T11:29:27.478Z,82
2017-11-27T11:30:37.284Z,81.81
2017-11-27T11:31:47.510Z,81.9
2017-11-27T11:32:56.792Z,82
2017-11-27T11:34:06.604Z,82.19
2017-11-27T11:35:16.705Z,82
2017-11-27T11:36:26.797Z,81.9
2017-11-27T11:37:36.613Z,82
2017-11-27T11:38:46.700Z,82.09
2017-11-27T11:39:56.768Z,82
2017-11-27T11:41:06.593Z,81.9
2017-11-27T11:42:16.149Z,81.81
2017-11-27T11:43:26.235Z,81.81
2017-11-27T11:44:36.323Z,81.81
2017-11-27T11:45:46.396Z,82
2017-11-27T11:46:56.232Z,82.09
2017-11-27T11:48:06.344Z,82
2017-11-27T11:49:16.436Z,81.9
2017-11-27T11:50:25.770Z,81.81
2017-11-27T11:51:35.643Z,81.9
2017-11-27T11:52:45.477Z,81.9
2017-11-27T11:53:55.564Z,81.9
2017-11-27T11:55:05.645Z,81.9
2017-11-27T11:56:15.489Z,81.81
2017-11-27T11:57:26.002Z,82.09
2017-11-27T11:58:36.070Z,82
2017-11-27T11:59:46.168Z,82.09
2017-11-27T12:00:56.247Z,82.09
2017-11-27T12:02:06.377Z,82.09
2017-11-27T12:03:16.219Z,82.09
2017-11-27T12:04:26.036Z,82
2017-11-27T12:05:36.110Z,81.96
2017-11-27T12:06:45.923Z,82.29
2017-11-27T12:07:55.994Z,81.9
2017-11-27T12:09:05.879Z,81.14
2017-11-27T12:10:15.963Z,80.9
2017-11-27T12:11:26.083Z,80.51
2017-11-27T12:12:35.897Z,80.07
2017-11-27T12:13:45.725Z,79.35
2017-11-27T12:14:55.862Z,77.61
2017-11-27T12:16:05.427Z,76.52
2017-11-27T12:17:15.523Z,76.17
2017-11-27T12:18:25.621Z,78.3
2017-11-27T12:19:35.714Z,79.85
2017-11-27T12:20:45.788Z,81.4
2017-11-27T12:21:55.892Z,82.51
2017-11-27T12:23:05.983Z,81.36
2017-11-27T12:24:15.784Z,79.29
2017-11-27T12:25:25.864Z,77.36
2017-11-27T12:26:35.785Z,75.85
2017-11-27T12:27:45.605Z,74.64
2017-11-27T12:28:55.677Z,74.52
2017-11-27T12:30:05.768Z,74.27
2017-11-27T12:31:15.324Z,73.92
2017-11-27T12:32:25.410Z,76.15
2017-11-27T12:33:35.231Z,78.86
2017-11-27T12:34:45.321Z,80.18
2017-11-27T12:35:55.403Z,81.44
2017-11-27T12:37:05.509Z,81.59
2017-11-27T12:38:15.097Z,79.24
2017-11-27T12:39:25.212Z,78.02
2017-11-27T12:40:35.322Z,75.89
2017-11-27T12:41:45.459Z,74.62
2017-11-27T12:42:55.575Z,74.65
2017-11-27T12:44:06.592Z,74.69
2017-11-27T12:45:18.952Z,76.77
2017-11-27T12:46:29.181Z,78.8
2017-11-27T12:47:38.995Z,80.7
2017-11-27T12:48:48.022Z,81.67
2017-11-27T12:49:58.115Z,82.93
2017-11-27T12:51:08.213Z,82.51
2017-11-27T12:52:18.019Z,83.65
2017-11-27T12:53:27.316Z,83.33
2017-11-27T12:54:37.400Z,83.47
2017-11-27T12:55:47.478Z,83.38
2017-11-27T12:56:57.572Z,83.38
2017-11-27T12:58:07.113Z,83.43
2017-11-27T12:59:16.937Z,82.76
2017-11-27T13:00:27.142Z,82.63
2017-11-27T13:01:37.260Z,82.82
2017-11-27T13:02:47.361Z,83.01
2017-11-27T13:03:56.989Z,82.43
2017-11-27T13:05:07.104Z,82.24
2017-11-27T13:06:17.193Z,82.34
2017-11-27T13:07:27.288Z,82.53
2017-11-27T13:08:36.884Z,82.01
2017-11-27T13:09:46.959Z,82.3
2017-11-27T13:10:57.058Z,82.49
2017-11-27T13:12:06.924Z,82.3
2017-11-27T13:13:17.043Z,82.68
2017-11-27T13:14:27.164Z,83.59
2017-11-27T13:15:36.987Z,83.31
2017-11-27T13:16:47.115Z,83.31
2017-11-27T13:17:56.405Z,83.5
2017-11-27T13:19:06.250Z,83.55
2017-11-27T13:20:16.377Z,83.45
2017-11-27T13:21:26.219Z,83.17
2017-11-27T13:22:36.335Z,83.74
2017-11-27T13:23:46.163Z,83.17
2017-11-27T13:24:56.046Z,83.26
2017-11-27T13:26:06.135Z,82.12
2017-11-27T13:27:16.220Z,82.07
2017-11-27T13:28:26.351Z,82.17
2017-11-27T13:29:36.514Z,81.78
2017-11-27T13:30:46.372Z,82.35
2017-11-27T13:31:56.490Z,82.92
2017-11-27T13:33:06.097Z,82.45
2017-11-27T13:34:15.684Z,82.17
2017-11-27T13:35:25.846Z,82.17
2017-11-27T13:36:35.927Z,82.07
2017-11-27T13:37:46.020Z,82.41
2017-11-27T13:38:56.106Z,82.12
2017-11-27T13:40:06.192Z,82.21
2017-11-27T13:41:16.399Z,82.5
2017-11-27T13:42:26.541Z,82.89
2017-11-27T13:43:36.375Z,82.5
2017-11-27T13:44:46.465Z,82.31
2017-11-27T13:45:56.568Z,82.21
2017-11-27T13:47:06.413Z,82.5
2017-11-27T13:48:15.985Z,82.41
2017-11-27T13:49:26.083Z,82.6
2017-11-27T13:50:36.320Z,82.41
2017-11-27T13:51:46.161Z,82.5
2017-11-27T13:52:55.725Z,82.6
2017-11-27T13:54:06.964Z,82.21
2017-11-27T13:55:16.551Z,82.21
2017-11-27T13:56:26.876Z,82.21
2017-11-27T13:57:36.987Z,82.41
2017-11-27T13:58:46.868Z,82.21
2017-11-27T13:59:57.046Z,82.31
2017-11-27T14:01:07.196Z,81.84
2017-11-27T14:02:17.309Z,82.31
2017-11-27T14:03:27.178Z,82.12
2017-11-27T14:04:37.329Z,82.21
2017-11-27T14:05:47.419Z,82.31
2017-11-27T14:07:12.184Z,82.12
2017-11-27T14:08:23.856Z,82.08
2017-11-27T14:09:33.705Z,81.98
2017-11-27T14:10:43.834Z,82.27
2017-11-27T14:11:53.903Z,82.37
2017-11-27T14:13:03.988Z,82.18
2017-11-27T14:14:13.823Z,82.18
2017-11-27T14:15:23.654Z,82.18
2017-11-27T14:16:33.759Z,82.56
2017-11-27T14:17:43.574Z,82.08
2017-11-27T14:18:55.180Z,82.08
2017-11-27T14:20:06.583Z,82.27
2017-11-27T14:21:16.158Z,82.08
2017-11-27T14:22:27.138Z,82.08
2017-11-27T14:23:37.640Z,82.27
2017-11-27T14:24:47.488Z,82.18
2017-11-27T14:25:58.490Z,82.75
2017-11-27T14:27:10.272Z,82.56
2017-11-27T14:28:20.355Z,82.84
2017-11-27T14:29:31.350Z,82.84
2017-11-27T14:30:41.455Z,82.42
2017-11-27T14:31:51.555Z,83.18
2017-11-27T14:33:01.677Z,83.37
2017-11-27T14:34:11.775Z,83.18
2017-11-27T14:35:21.398Z,83.28
2017-11-27T14:36:31.506Z,83.37
2017-11-27T14:37:41.609Z,83.09
2017-11-27T14:38:51.426Z,83.42
2017-11-27T14:40:00.996Z,83.14
2017-11-27T14:41:11.200Z,83.04
2017-11-27T14:42:21.287Z,83.23
2017-11-27T14:43:31.131Z,83.23
2017-11-27T14:44:41.225Z,83.42
2017-11-27T14:45:51.088Z,83.33
2017-11-27T14:47:00.999Z,83.23
2017-11-27T14:48:10.813Z,83.23
2017-11-27T14:49:20.636Z,83.52
2017-11-27T14:50:30.485Z,83.71
2017-11-27T14:51:41.439Z,83.33
2017-11-27T14:52:54.864Z,83.42
2017-11-27T14:54:04.684Z,83.23
2017-11-27T14:55:13.950Z,83.52
2017-11-27T14:56:23.489Z,83.39
2017-11-27T14:57:33.611Z,83.67
2017-11-27T14:58:43.495Z,83.58
2017-11-27T14:59:53.593Z,83.1
2017-11-27T15:01:03.414Z,83.58
2017-11-27T15:02:14.732Z,83.29
2017-11-27T15:03:24.576Z,83.29
2017-11-27T15:04:34.715Z,83.48
2017-11-27T15:05:44.796Z,83.19
2017-11-27T15:06:54.942Z,83.19
2017-11-27T15:08:05.091Z,83.29
2017-11-27T15:09:15.198Z,83.67
2017-11-27T15:10:25.275Z,83.1
2017-11-27T15:11:35.350Z,83.53
2017-11-27T15:12:45.183Z,82.87
2017-11-27T15:13:55.288Z,83.06
2017-11-27T15:15:05.116Z,83.25
2017-11-27T15:16:14.949Z,82.91
2017-11-27T15:17:25.103Z,83.53
2017-11-27T15:18:35.204Z,83.53
2017-11-27T15:19:45.298Z,83.15
2017-11-27T15:20:55.423Z,83.44
2017-11-27T15:22:04.969Z,83.62
2017-11-27T15:23:14.578Z,83.62
2017-11-27T15:24:24.681Z,83.53
2017-11-27T15:25:34.527Z,83.62
2017-11-27T15:26:44.399Z,83.25
2017-11-27T15:27:54.509Z,83.25
2017-11-27T15:29:04.400Z,83.53
2017-11-27T15:30:14.230Z,82.87
2017-11-27T15:31:24.353Z,83.06
2017-11-27T15:32:34.457Z,83.44
2017-11-27T15:33:44.596Z,83.06
2017-11-27T15:34:54.727Z,83.06
2017-11-27T15:36:04.551Z,83.06